Seward, AK

2:15 PM AKDT on July 25, 2014 (GMT -0800)
Soldotna (PASX) Elev 112 ft | 60.48 °N, 151.03 °W | Change Station

Current weather conditions updated 19 minutes ago

Overcast
Overcast
55 °F
Feels Like 55 °F
N
6
Wind Variable Wind from South

Today is forecast to be nearly the same temperature as yesterday. Light rain.

Today
High -- | Low -- °F
--% Chance of Precip.
Yesterday
High -- | Low -- °F
Precip. -- in
5:21 AM 10:45 PM
Waning Crescent, 1% visible
Pressure 29.80 in
Visibility 9.0 miles
Clouds Mostly Cloudy 3100 ft
Overcast 3900 ft
Dew Point 52 °F
Humidity 88%
Rainfall 0.03 in
Snow Depth 0 in , 12 in
UV 2 out of 12
Pollen Not available.
Air Quality Not available.
Flu Activity Not available.
METAR PASX 252156Z AUTO 17005KT 9SM BKN031 OVC039 13/11 A2980 RMK AO1 P0001

More Conditions Fewer Conditions

Pressure 29.80 in
Visibility 9.0 miles
Clouds Mostly Cloudy 3100 ft
Overcast 3900 ft
Dew Point 52 °F
Humidity 88%
Rainfall 0.03 in
Snow Depth 0 in , 12 in
UV 2 out of 12
Pollen Not available.
Air Quality Not available.
Flu Activity Not available.
METAR PASX 252156Z AUTO 17005KT 9SM BKN031 OVC039 13/11 A2980 RMK AO1 P0001

More Conditions Fewer Conditions

10-Day Weather Forecast

Almanac

Astronomy

Jul. 25, 2014 Rise Set
Actual Time 5:21 AM AKDT 10:45 PM AKDT
Civil Twilight 4:14 AM AKDT 11:51 PM AKDT
Nautical Twilight 2:36 AM AKDT 1:31 AM AKDT
Astronomical Twilight Sun does not rise Sun does not rise
Moon 4:44 AM AKDT 9:27 PM AKDT
Length of Visible Light 19h 37m
Length of Day
17h 23m
Tomorrow will be 4m 34s shorter.
Waning Crescent, 1% of the Moon is Illuminated
Today
Waning Crescent
Jul 26
New
Aug 3
First Quarter
Aug 10
Full
Aug 17
Last Quarter

Today's Extremes

State Highs State Lows

Community

WunderPhotos

Upload Photos

1,737,415 photos uploaded!

Nearby

Snow Depth

Station Depth Elevation
Grouse Creek Divide 0 in 700 ft
Cooper Lake 12 in 1200 ft
Summit Creek 0 in 1400 ft
Grandview 4 in 1100 ft
Turnagain Pass 0 in 1880 ft

Earthquake Activity

City Distance Mag. Time & Date
No recent earthquake activity has been reported nearby.
Minimum magnitude displayed is 2.5.

Coastal Water Temperatures

Place Temperature
No Stations Reporting

Nearby Weather Stations

Station Location Temp. Windchill Dew Point Humidity Wind Precip. Elev Updated Type
Oak Street Forest Acres Seward Alaska, Seward, AK 59.0 °F - 53 °F 80% NNE  at  0.0 mph 0.00 in / hr 144 ft 2:14 PM AKDT Rapid Fire
RAWS KENAI LAKE AK, Moose Pass, AK 56 °F - 54 °F 94% SSE  at  1 mph 0.01 in / hr 470 ft 12:56 PM AKDT MADIS
RAWS PEDERSEN LAGOON AK, Seward, AK 57 °F - 50 °F 78% North  at  4 mph 0.00 in / hr 625 ft 1:28 PM AKDT MADIS
RAWS HARDING ICEFIELD AK, Seward, AK 39 °F 30 °F 38 °F 94% NNW  at  17 mph 0.00 in / hr 4299 ft 1:43 PM AKDT MADIS

Show More Stations Show Fewer Stations